Home > Products > Valid Products > TAF

000
FTUS44 KSJT 231100
TAFJCT
TAF
KJCT 231126Z 2312/2412 VRB05KT P6SM FEW250
     FM231700 27017G25KT P6SM SKC
     FM240000 33010KT P6SM SKC=



000
FTUS44 KSJT 231100
TAFSJT
TAF
KSJT 231126Z 2312/2412 23011KT P6SM FEW250
     FM231500 26017G26KT P6SM SKC
     FM231800 28023G33KT P6SM SKC
     FM240000 31012G18KT P6SM SKC
     FM240300 34010KT P6SM FEW100=



000
FTUS44 KSJT 231100
TAFABI
TAF
KABI 231126Z 2312/2412 21010KT P6SM SCT250
     FM231500 25016G25KT P6SM SKC
     FM231800 29023G33KT P6SM SKC
     FM232300 33013G20KT P6SM FEW120
     FM240100 34011KT P6SM FEW120=



000
FTUS44 KSJT 230500 CCA
TAFABI
TAF COR
KABI 230546Z 2306/2406 20010KT 3SM BR OVC005
      TEMPO 2307/2308 6SM BR SCT005
     FM230800 21010KT P6SM FEW200
     FM231500 24016G25KT P6SM SKC
     FM231800 29022G33KT P6SM SKC
     FM232300 31013G20KT P6SM FEW120
     FM240100 34012G18KT P6SM SCT100=



000
FTUS44 KSJT 230500
TAFJCT
TAF
KJCT 230527Z 2306/2406 VRB05KT P6SM SCT120
     FM231500 26008KT P6SM SKC
     FM231800 28017G25KT P6SM SKC
     FM240000 33010KT P6SM SKC=



000
FTUS44 KSJT 230500
TAFSJT
TAF
KSJT 230527Z 2306/2406 18005KT P6SM FEW200
      TEMPO 2306/2308 SCT007
     FM231000 23011KT P6SM SKC
     FM231500 26017G26KT P6SM SKC
     FM231900 28022G33KT P6SM SKC
     FM240000 30011KT P6SM SKC
     FM240300 34012G18KT P6SM FEW100=



000
FTUS44 KSJT 230500
TAFABI
TAF
KABI 230527Z 2306/2406 21010KT P6SM FEW200
      TEMPO 2306/2308 2SM BR BKN006
     FM231500 24016G25KT P6SM SKC
     FM231800 29022G33KT P6SM SKC
     FM232300 31013G20KT P6SM FEW120
     FM240100 34012G18KT P6SM SCT100=



000
FTUS44 KSJT 230200 AAA
TAFJCT
TAF AMD
KJCT 230202Z 2302/2324 21008KT P6SM SCT035 BKN120
      TEMPO 2302/2303 22011G17KT
     FM230300 VRB06KT P6SM BKN120
     FM231500 26010G16KT P6SM SKC
     FM231800 28018G24KT P6SM SKC=



000
FTUS44 KSJT 230000 AAA
TAFSJT
TAF AMD
KSJT 230006Z 2300/2324 06010KT P6SM SCT030 BKN040 OVC050
     FM230300 VRB06KT P6SM BKN120
     FM231500 25015G25KT P6SM SKC
     FM231800 28022G35KT P6SM SKC=



000
FTUS44 KSJT 230000 AAA
TAFABI
TAF AMD
KABI 230004Z 2300/2324 08011KT P6SM OVC070
      TEMPO 2300/2303 11020G30KT -RA
     FM230300 VRB06KT P6SM BKN120
     FM231500 24015G25KT P6SM SKC
     FM231800 29022G35KT P6SM SKC=



000
FTUS44 KSJT 222300
TAFABI
TAF
KABI 222329Z 2300/2324 08011KT P6SM -TSRA OVC070CB
     FM230300 VRB06KT P6SM BKN120
     FM231500 24015G25KT P6SM SKC
     FM231800 29022G35KT P6SM SKC=



000
FTUS44 KSJT 222300
TAFSJT
TAF
KSJT 222329Z 2300/2324 06010KT P6SM -TSRA BKN040CB OVC110
     FM230300 VRB06KT P6SM BKN120
     FM231500 25015G25KT P6SM SKC
     FM231800 28022G35KT P6SM SKC=



000
FTUS44 KSJT 222300
TAFJCT
TAF
KJCT 222329Z 2300/2324 21008KT P6SM SCT035 BKN120
     FM230300 VRB06KT P6SM BKN120
     FM231500 26010G16KT P6SM SKC
     FM231800 28018G24KT P6SM SKC=



000
FTUS44 KSJT 222200 AAB
TAFJCT
TAF AMD
KJCT 222230Z 2223/2318 21008KT P6SM SCT025 BKN035 OVC050
     FM222300 21007KT P6SM SCT030 BKN250=



000
FTUS44 KSJT 222200 AAB
TAFSJT
TAF AMD
KSJT 222228Z 2222/2318 03009KT P6SM VCTS BKN040CB BKN060 BKN120
     FM230000 24007KT P6SM SCT100
     FM231500 25016G26KT P6SM SKC=



000
FTUS44 KSJT 222200 AAA
TAFABI
TAF AMD
KABI 222226Z 2222/2318 08010KT P6SM -TSRA FEW050 SCT070CB OVC090
     FM230000 19008KT P6SM BKN100
     FM231400 24015G25KT P6SM SKC=



000
FTUS44 KSJT 222000 AAA
TAFJCT
TAF AMD
KJCT 222027Z 2220/2318 21015G21KT P6SM SCT025 BKN035
     FM222300 21007KT P6SM SCT030 BKN250=



000
FTUS44 KSJT 222000 AAA
TAFSJT
TAF AMD
KSJT 222025Z 2220/2318 21015G23KT P6SM SCT035
     FM230000 24007KT P6SM SCT100
     FM231500 25016G26KT P6SM SKC=



000
FTUS44 KSJT 221700 RRA
TAFJCT
TAF
KJCT 221753Z 2218/2318 18012KT P6SM VCTS SCT017 BKN025CB
     FM222300 21007KT P6SM BKN100=



000
FTUS44 KSJT 221700 RRA
TAFABI
TAF
KABI 221753Z 2218/2318 17013KT 4SM -SHRA VCTS BKN015CB
     FM222100 17011KT P6SM VCTS BKN025CB
     FM230000 19008KT P6SM BKN100
     FM231400 24015G25KT P6SM SKC=



000
FTUS44 KSJT 221700 RRA
TAFSJT
TAF
KSJT 221753Z 2218/2318 18009KT P6SM VCTS BKN035CB
      TEMPO 2218/2221 4SM -SHRA BR BKN025
     FM222200 21008KT P6SM BKN035
     FM230000 24007KT P6SM BKN100
     FM231500 25016G26KT P6SM SKC=



000
FTUS44 KSJT 221600 AAA
TAFABI
TAF AMD
KABI 221650Z 2217/2312 17011KT P6SM VCSH BKN022
     FM221900 17011KT P6SM VCSH BKN025
     FM222300 19008KT P6SM BKN100=



000
FTUS44 KSJT 221600 AAA
TAFSJT
TAF AMD
KSJT 221648Z 2217/2312 17010KT P6SM VCTS OVC019CB
     FM221800 18009KT P6SM VCSH BKN020
     FM222200 21008KT P6SM BKN100=



000
FTUS44 KSJT 221100 RRA
TAFSJT
TAF
KSJT 221141Z 2212/2312 14007KT P6SM BKN020 WS020/18035KT
     FM221400 17010KT 4SM -SHRA OVC015
     FM221800 18009KT P6SM VCSH BKN020
     FM222200 21008KT P6SM BKN100=



000
FTUS44 KSJT 221100 RRA
TAFABI
TAF
KABI 221141Z 2212/2312 16012KT 5SM -SHRA BKN015 WS020/19040KT
     FM221500 17011KT 4SM -SHRA OVC015
     FM221900 17011KT P6SM VCSH BKN020
     FM222300 19008KT P6SM BKN100=



000
FTUS44 KSJT 221100 RRA
TAFJCT
TAF
KJCT 221141Z 2212/2312 15010KT P6SM -SHRA BKN020 WS020/17035KT
     FM221500 16010KT 4SM -SHRA BKN010
     FM221900 18012KT P6SM VCSH BKN020
     FM222300 21007KT P6SM BKN100=



000
FTUS44 KSJT 220500
TAFABI
TAF
KABI 220520Z 2206/2306 15009KT P6SM BKN035
     FM220800 15010KT P6SM BKN018
     FM221100 16012KT 6SM -SHRA OVC009
     FM221400 16012KT 4SM -RA OVC007
     FM221900 17011KT P6SM VCSH BKN020
     FM222300 19008KT P6SM BKN100=



000
FTUS44 KSJT 220500
TAFJCT
TAF
KJCT 220520Z 2206/2306 13006KT 6SM -DZ VCSH BKN020 WS020/18040KT
     FM220900 15010KT 6SM -SHRA BKN008 WS020/18035KT
      TEMPO 2209/2213 4SM -RA BKN012
     FM221500 16010KT 4SM -RA BKN007
     FM221900 18012KT P6SM VCSH BKN020
     FM222300 21007KT P6SM BKN100=



000
FTUS44 KSJT 220500
TAFSJT
TAF
KSJT 220520Z 2206/2306 14007KT P6SM BKN020
     FM221000 16011KT 6SM -SHRA OVC009
     FM221400 17010KT 4SM -RA OVC007
     FM221800 18009KT P6SM VCSH BKN020
     FM222200 21008KT P6SM BKN100=



000
FTUS44 KSJT 220300 AAA
TAFABI
TAF AMD
KABI 220333Z 2204/2224 16008KT P6SM BKN040
     FM220500 15009KT 6SM -DZ BKN018
     FM220700 16012KT 6SM -SHRA BKN009 WS020/18035KT
     FM221400 17011KT 4SM -RA BKN005
     FM222000 18010KT P6SM BKN014=



000
FTUS44 KSJT 212300
TAFJCT
TAF
KJCT 212331Z 2200/2224 18010KT P6SM BKN035
     FM220300 14006KT P6SM VCSH BKN018
     FM220500 15010KT 6SM -DZ VCSH BKN008 WS020/18040KT
     FM221100 16008KT 4SM -RA BKN006
     FM221900 19011KT P6SM VCSH BKN020=



000
FTUS44 KSJT 212300
TAFABI
TAF
KABI 212331Z 2200/2224 16008KT P6SM SCT035
     FM220400 15009KT 6SM -DZ BKN018
     FM220600 16012KT 6SM -SHRA BKN009 WS020/18035KT
     FM221300 17011KT 4SM -RA BKN005
     FM222000 18010KT P6SM BKN014=



000
FTUS44 KSJT 212300
TAFSJT
TAF
KSJT 212331Z 2200/2224 16010KT P6SM SCT035
     FM220400 15009KT 6SM -DZ BKN016
     FM220600 16011KT 6SM -SHRA BKN008 WS020/18035KT
     FM221200 17010KT 4SM -RA BKN005
     FM221900 18009KT P6SM VCSH BKN020=



000
FTUS44 KSJT 211900 AAA
TAFABI
TAF AMD
KABI 211915Z 2119/2218 19012KT P6SM FEW030
     FM212000 17011KT P6SM BKN035
     FM220100 14009KT P6SM BKN018
     FM220300 16011KT P6SM VCSH BKN009=



000
FTUS44 KSJT 211700
TAFSJT
TAF
KSJT 211737Z 2118/2218 19011G18KT P6SM OVC035
     FM220100 15011KT P6SM BKN018
     FM220500 15010KT P6SM VCSH BKN009=



000
FTUS44 KSJT 211700
TAFJCT
TAF
KJCT 211737Z 2118/2218 18010KT P6SM BKN035
     FM220100 14006KT P6SM BKN015
     FM220300 13011KT P6SM VCSH BKN007=



000
FTUS44 KSJT 211700
TAFABI
TAF
KABI 211737Z 2118/2218 19012KT P6SM BKN024
     FM212000 17011KT P6SM BKN035
     FM220100 14009KT P6SM BKN018
     FM220300 16011KT P6SM VCSH BKN009=



000
FTUS44 KSJT 211500 AAB
TAFJCT
TAF AMD
KJCT 211524Z 2115/2212 VRB03KT 6SM BR OVC012
      TEMPO 2115/2116 SCT012
     FM211600 18007KT P6SM BKN018
     FM212000 18010KT P6SM VCSH BKN030
     FM220300 15011KT P6SM VCTS BKN015CB
     FM220800 15010KT P6SM OVC010=



000
FTUS44 KSJT 211500 AAA
TAFSJT
TAF AMD
KSJT 211523Z 2115/2212 19010KT P6SM BKN021
     FM211900 19011KT P6SM BKN035
     FM220500 15010KT P6SM VCSH BKN015=



000
FTUS44 KSJT 211400 AAA
TAFJCT
TAF AMD
KJCT 211424Z 2114/2212 VRB03KT 3SM BR OVC012
      TEMPO 2114/2116 1SM BR OVC003
     FM211600 18007KT P6SM BKN018
     FM212000 18010KT P6SM VCSH BKN030
     FM220300 15011KT P6SM VCTS BKN015CB
     FM220800 15010KT P6SM OVC010=



000
FTUS44 KSJT 211100
TAFJCT
TAF
KJCT 211140Z 2112/2212 VRB03KT P6SM OVC012
     FM211500 18007KT P6SM BKN018
     FM212000 18010KT P6SM VCSH BKN030
     FM220300 15011KT P6SM VCTS BKN015CB
     FM220800 15010KT P6SM OVC010=



000
FTUS44 KSJT 211100
TAFSJT
TAF
KSJT 211140Z 2112/2212 20010KT P6SM OVC010
      TEMPO 2112/2114 BKN007
     FM211600 19010KT P6SM BKN025
     FM211900 19011KT P6SM BKN035
     FM220500 15010KT P6SM VCSH BKN015=



000
FTUS44 KSJT 211100
TAFABI
TAF
KABI 211140Z 2112/2212 19012KT P6SM OVC010
      TEMPO 2112/2115 BKN008
     FM211600 19010KT P6SM BKN025
     FM212000 19011KT P6SM BKN035
     FM220400 16011KT P6SM VCSH BKN015=



000
FTUS44 KSJT 210500
TAFJCT
TAF
KJCT 210520Z 2106/2206 VRB05KT P6SM SCT250
     FM210630 VRB03KT P6SM OVC010
     FM211000 VRB03KT 5SM BR OVC006
     FM211500 18007KT P6SM BKN018
     FM212000 18010KT P6SM VCSH BKN030
     FM220200 15011KT P6SM VCTS BKN015CB=



000
FTUS44 KSJT 210500
TAFSJT
TAF
KSJT 210520Z 2106/2206 20009KT P6SM SCT250
     FM210800 19008KT P6SM BKN012
      TEMPO 2110/2114 BKN007
     FM211600 19010KT P6SM BKN022
     FM211900 19011KT P6SM BKN035
     FM220300 15010KT P6SM VCSH BKN015=



000
FTUS44 KSJT 210500
TAFABI
TAF
KABI 210520Z 2106/2206 20011KT P6SM SCT250
     FM210900 18009KT P6SM BKN015
      TEMPO 2111/2115 BKN008
     FM211600 19010KT P6SM BKN025
     FM212000 19011KT P6SM BKN035
     FM220300 16011KT P6SM VCSH BKN015=



000
FTUS44 KSJT 202300 RRA
TAFSJT
TAF
KSJT 202342Z 2100/2124 20009KT P6SM SCT250
     FM210700 19008KT P6SM BKN012
      TEMPO 2110/2114 BKN007
     FM211600 19010KT P6SM BKN022
     FM211900 19011KT P6SM BKN035=



000
FTUS44 KSJT 202300 RRA
TAFJCT
TAF
KJCT 202342Z 2100/2124 VRB05KT P6SM SCT250
     FM210500 VRB03KT P6SM OVC010
     FM211000 VRB03KT 5SM BR OVC006
     FM211500 18007KT P6SM BKN018
     FM212000 18010KT P6SM BKN030=



000
FTUS44 KSJT 202300 RRA
TAFABI
TAF
KABI 202342Z 2100/2124 20011KT P6SM SCT250
     FM210800 18009KT P6SM BKN015
      TEMPO 2111/2115 BKN008
     FM211600 19010KT P6SM BKN025
     FM212000 19011KT P6SM BKN035=



000
FTUS44 KSJT 201700
TAFSJT
TAF
KSJT 201724Z 2018/2118 20012G20KT P6SM SCT250
     FM202300 20009KT P6SM SCT250
     FM210700 19008KT P6SM BKN012
      TEMPO 2110/2114 BKN007
     FM211600 19010KT P6SM BKN022=



000
FTUS44 KSJT 201700
TAFABI
TAF
KABI 201724Z 2018/2118 20012G20KT P6SM SCT250
     FM210800 18009KT P6SM BKN015
      TEMPO 2111/2115 BKN008
     FM211600 19010KT P6SM BKN025=



000
FTUS44 KSJT 201700
TAFJCT
TAF
KJCT 201724Z 2018/2118 20011KT P6SM SCT035 SCT250
     FM210000 VRB05KT P6SM SCT250
     FM210600 VRB03KT P6SM OVC010
     FM211000 VRB03KT 5SM BR OVC006
     FM211500 18007KT P6SM BKN018=



000
FTUS44 KSJT 201400 AAA
TAFABI
TAF AMD
KABI 201404Z 2014/2112 20011G20KT P6SM FEW012 SCT200
      TEMPO 2014/2016 BKN012
     FM201600 20012G20KT P6SM SCT250
     FM211000 18009KT P6SM BKN015=



000
FTUS44 KSJT 201300 AAA
TAFSJT
TAF AMD
KSJT 201303Z 2013/2112 20012G18KT P6SM BKN012
     FM201600 20011G17KT P6SM SCT250
     FM202300 20009KT P6SM SCT250
     FM210800 19008KT P6SM BKN012=



    US Dept of Commerce
    National Oceanic and Atmospheric Administration
    National Weather Service
    1325 East West Highway
    Silver Spring, MD 20910
    Page Author: NWS Internet Services Team
Disclaimer
Information Quality
Credits
Glossary
Privacy Policy
Freedom of Information Act (FOIA)
About Us
Career Opportunities